NOAA/GLERL Met Station at Michigan City, IN

Previous 5 days (top of hour only)
See also Previous 3 Hours (2 minute increments)
Jump down to Data
Switch to [English][Metric]
Zoom: Click and drag, Pan: shift-click and drag, Unzoom: double-click, Unzoom All





Zoom: Click and drag, Pan: shift-click and drag, Unzoom: double-click, Unzoom All

Note: Speed = mean wind during 2-minute period at top of hour,
Gust = max wind during 2-minute period at top of hour,
Peak = max wind during entire hour.
• See also 5-day windrose plot

NOAA/GLERL Met Station at Michigan City, IN

Previous 5 days (top of hour only)
See also Previous 3 Hours (2 minute increments)
Jump up to Graphs
Switch to [English][Metric]
                  Wind  Wind  Wind   Air   Dew   Rel     Sta   PAR
                   Spd   Gst   Dir  Temp    Pt   Hum    Pres uE/m2/
YYYY-MM-DD   CST   kts   kts   deg     F     F     %   in Hg   sec
2016-12-04 06:00   7.4   8.2   117  32.0  25.2  75.8    0.00     0
2016-12-04 05:00   6.4   7.6   123  32.2  25.1  74.8    0.00     0
2016-12-04 04:00   5.4   6.2   125  32.4  25.2  74.6    0.00     0
2016-12-04 03:00   6.6   7.4   132  32.4  25.0  74.0    0.00     0
2016-12-04 02:00   4.9   5.8   114  32.4  24.6  72.9    0.00     0
2016-12-04 01:00   6.2   8.2   168  32.4  24.7  73.0    0.00     0
2016-12-04 00:00   7.4   8.9   163  32.5  24.5  72.0    0.00     0
2016-12-03 23:00   7.8   8.9   174  32.7  24.6  71.6    0.00     0
2016-12-03 22:00   4.3   5.1   152  32.9  24.1  69.8    0.00     0
2016-12-03 21:00   3.5   5.6   144  33.4  24.1  68.2    0.00     0
2016-12-03 20:00   5.1   5.8   178  33.6  24.1  67.7    0.00     0
2016-12-03 19:00   8.0  10.1   173  33.8  24.9  69.5    0.00     0
2016-12-03 18:00   7.4   9.5   235  34.9  24.9  66.7    0.00     0
2016-12-03 17:00   8.0   9.3   197  34.7  24.1  65.0    0.00     0
2016-12-03 16:00   8.2  11.5   244  35.1  24.2  64.3    0.00     0
2016-12-03 15:00   9.1  11.9   252  34.9  24.0  64.2    0.00     0
2016-12-03 14:00   8.7  10.3   248  35.2  25.2  66.6    0.00     0
2016-12-03 13:00  13.2  14.2   256  35.1  24.8  65.8    0.00     0
2016-12-03 12:00  13.2  14.6   204  34.7  23.9  64.5    0.00     0
2016-12-03 11:00   5.2   7.6   249  35.1  24.6  65.3    0.00     0
2016-12-03 10:00   3.5   5.2   277  35.1  24.2  64.3    0.00     0
2016-12-03 09:00   8.4  10.7   238  34.5  23.6  64.0    0.00     0
2016-12-03 08:00  10.5  12.2   237  34.7  23.6  63.6    0.00     0
2016-12-03 07:00  12.8  14.8   240  34.5  23.8  64.6    0.00     0
2016-12-03 06:00  15.2  15.9   229  35.1  25.2  67.0    0.00     0
2016-12-03 05:00  14.2  16.3   217  35.8  25.2  65.1    0.00     0
2016-12-03 04:00   9.9  11.5   195  35.4  26.4  69.3    0.00     0
2016-12-03 03:00   7.0   8.0   267  36.1  24.6  62.5    0.00     0
2016-12-03 02:00   8.9  10.7   262  36.5  25.3  63.4    0.00     0
2016-12-03 01:00   9.7  11.3   274  37.0  26.3  64.7    0.00     0
2016-12-03 00:00  10.9  13.6   291  37.2  26.2  64.2    0.00     0
2016-12-02 23:00  10.9  11.5   264  37.9  25.9  61.6    0.00     0
2016-12-02 22:00   9.1  11.3   320  37.9  25.7  61.0    0.00     0
2016-12-02 21:00   9.3  10.5   316  37.8  26.0  62.3    0.00     0
2016-12-02 20:00  11.5  13.6   310  37.8  26.5  63.4    0.00     0
2016-12-02 19:00  13.4  14.6   292  38.3  28.1  66.4    0.00     0
2016-12-02 18:00  16.7  19.8   312  37.8  28.1  67.7    0.00     0
2016-12-02 17:00  15.2  16.7   326  38.5  28.7  67.7    0.00     0
2016-12-02 16:00  14.2  16.5   298  38.5  28.6  67.3    0.00     0
2016-12-02 15:00  17.9  20.0   314  38.3  28.1  66.4    0.00     0
2016-12-02 14:00  12.1  13.2   288  39.2  29.0  66.4    0.00     0
2016-12-02 13:00  16.7  18.3   276  39.4  29.2  66.6    0.00     0
2016-12-02 12:00  15.2  17.5   294  39.4  28.9  65.7    0.00     0
2016-12-02 11:00  18.1  20.6   307  39.2  31.5  73.5    0.00     0
2016-12-02 10:00  20.0  22.0   243  39.4  32.2  75.3    0.00     0
2016-12-02 09:00  17.7  21.4   236  39.6  30.8  70.6    0.00     0
2016-12-02 08:00  18.1  19.8   272  39.7  28.7  64.4    0.00     0
2016-12-02 07:00  20.2  22.9   265  38.8  28.1  65.1    0.00     0
2016-12-02 06:00  19.6  22.6   245  39.4  30.6  70.4    0.00     0
2016-12-02 05:00  19.6  22.4   244  38.1  31.1  75.6    0.00     0
2016-12-02 04:00  21.4  26.6   242  39.0  32.5  77.2    0.00     0
2016-12-02 03:00  20.4  22.9   250  39.4  32.6  76.4    0.00     0
2016-12-02 02:00  18.7  20.8   230  39.0  30.4  70.9    0.00     0
2016-12-02 01:00  20.6  23.3   232  39.4  30.3  69.5    0.00     0
2016-12-02 00:00  17.9  22.0   207  38.5  33.2  81.1    0.00     0
2016-12-01 23:00  20.2  21.4   233  39.4  31.4  72.8    0.00     0
2016-12-01 22:00  20.8  25.5   221  39.6  31.9  73.8    0.00     0
2016-12-01 21:00  24.1  26.2   224  39.6  33.1  77.4    0.00     0
2016-12-01 20:00  22.9  25.5   226  40.3  27.8  60.7    0.00     0
2016-12-01 19:00  23.5  27.6   240  40.5  33.2  75.0    0.00     0
2016-12-01 18:00  23.5  26.8   233  40.6  31.4  69.3    0.00     0
2016-12-01 17:00  23.7  26.2   228  40.5  32.2  72.0    0.00     0
2016-12-01 16:00  25.9  29.0   229  41.0  32.7  72.1    0.00     0
2016-12-01 15:00  26.8  29.4   236  40.8  32.5  71.9    0.00     0
2016-12-01 14:00  26.0  29.2   228  40.6  33.4  75.0    0.00     0
2016-12-01 13:00  26.2  29.5   228  40.5  32.7  73.4    0.00     0
2016-12-01 12:00  24.3  28.0   230  40.5  34.1  77.7    0.00     0
2016-12-01 11:00  26.4  28.6   227  39.9  33.1  76.3    0.00     0
2016-12-01 10:00  28.4  31.5   231  39.6  34.0  80.2    0.00     0
2016-12-01 09:00  25.7  30.1   234  39.2  34.6  83.3    0.00     0
2016-12-01 08:00  29.7  33.6   224  38.3  34.1  84.6    0.00     0
2016-12-01 07:00  30.7  33.6   224  38.1  32.6  80.4    0.00     0
2016-12-01 06:00  23.3  24.9   206  37.6  32.0  80.0    0.00     0
2016-12-01 05:00  20.8  23.1   198  36.7  31.1  79.9    0.00     0
2016-11-29 11:00  19.6  22.9   167  52.5  41.4  65.6    0.00     0
2016-11-29 10:00  15.2  17.9   166  50.0  42.9  76.2    0.00     0
2016-11-29 09:00  15.0  18.1   158  48.6  43.1  81.2    0.00     0
2016-11-29 08:00  17.3  21.2   163  46.6  43.0  87.3    0.00     0
2016-11-29 07:00  14.8  16.9   157  45.1  41.9  88.3    0.00     0
2016-11-29 06:00  15.2  18.9   148  45.7  41.8  86.2    0.00     0
2016-11-29 05:00  16.1  18.1   152  46.8  42.1  83.5    0.00     0
2016-11-29 04:00   9.1  11.3   169  47.7  42.6  82.5    0.00     0
2016-11-29 03:00  15.7  18.3   186  49.3  43.5  80.3    0.00     0
2016-11-29 02:00  24.7  27.6   195  50.5  44.6  79.8    0.00     0
2016-11-29 01:00  24.9  31.9   189  52.0  45.6  78.5    0.00     0
2016-11-29 00:00  20.2  24.7   182  51.8  47.0  83.6    0.00     0
2016-11-28 23:00  18.1  22.0   178  51.3  48.7  90.7    0.00     0
2016-11-28 22:00  23.1  29.5   189  52.0  51.1  96.6    0.00     0
2016-11-28 21:00  19.4  23.1   117  52.5  50.9  94.0    0.00     0
2016-11-28 20:00  17.7  22.7   132  51.4  50.1  95.0    0.00     0
2016-11-28 19:00  19.8  25.9   140  51.8  50.3  94.4    0.00     0
2016-11-28 18:00  18.3  24.7   132  49.8  48.5  95.1    0.00     0